Time;durP1;ratioP1;P1;durP2;ratioP2;P2;SDS_P1;SDS_P2;PMS_P1;PMS_P2;Temp;Humidity;BMP_temperature;BMP_pressure;BME280_temperature;BME280_humidity;BME280_pressure;Samples;Min_cycle;Max_cycle;Signal;HPM_P1;HPM_P2
2022/09/15 00:00:23;;;;;;;6.78;1.30;;;15.10;99.90;;;;;;7400420;19;20030;-78
2022/09/15 00:02:49;;;;;;;7.13;1.60;;;15.10;99.90;;;;;;7403454;19;20022;-77
2022/09/15 00:05:17;;;;;;;11.52;2.00;;;15.10;99.90;;;;;;7397793;19;20576;-78
2022/09/15 00:07:48;;;;;;;5.68;2.00;;;15.10;99.90;;;;;;7395885;19;20022;-78
2022/09/15 00:10:14;;;;;;;7.30;1.95;;;15.20;99.90;;;;;;7395109;19;20022;-77
2022/09/15 00:12:40;;;;;;;7.80;1.65;;;15.10;99.90;;;;;;7401538;19;20030;-78
2022/09/15 00:15:06;;;;;;;5.32;1.52;;;15.10;99.90;;;;;;7395901;19;20015;-78
2022/09/15 00:17:32;;;;;;;7.20;1.50;;;15.10;99.90;;;;;;7398476;19;20007;-78
2022/09/15 00:19:58;;;;;;;5.25;1.90;;;15.10;99.90;;;;;;7397843;19;20028;-79
2022/09/15 00:22:24;;;;;;;7.03;1.50;;;15.10;99.90;;;;;;7398254;19;20007;-78
2022/09/15 00:24:50;;;;;;;5.70;1.60;;;15.10;99.90;;;;;;7400595;19;20042;-78
2022/09/15 00:27:16;;;;;;;7.43;1.73;;;15.10;99.90;;;;;;7398315;19;20018;-78
2022/09/15 00:29:42;;;;;;;7.18;1.70;;;15.10;99.90;;;;;;7398945;19;20011;-78
2022/09/15 00:32:09;;;;;;;4.60;1.35;;;15.10;99.90;;;;;;7400208;19;20349;-79
2022/09/15 00:34:35;;;;;;;5.13;1.65;;;15.10;99.90;;;;;;7400870;19;20022;-78
2022/09/15 00:37:01;;;;;;;8.38;1.90;;;15.10;99.90;;;;;;7399194;19;20030;-78
2022/09/15 00:39:27;;;;;;;4.35;1.40;;;15.10;99.90;;;;;;7396934;19;20018;-78
2022/09/15 00:41:53;;;;;;;6.57;1.65;;;15.10;99.90;;;;;;7400669;19;20015;-79
2022/09/15 00:44:18;;;;;;;5.68;1.35;;;15.10;99.90;;;;;;7399925;19;20382;-79
2022/09/15 00:46:50;;;;;;;6.38;1.45;;;15.10;99.90;;;;;;7398825;19;20011;-78
2022/09/15 00:49:23;;;;;;;5.32;1.77;;;15.10;99.90;;;;;;7400137;19;20086;-78
2022/09/15 00:51:58;;;;;;;7.07;1.85;;;15.10;99.90;;;;;;7399383;19;20078;-79
2022/09/15 00:54:31;;;;;;;6.03;1.42;;;15.10;99.90;;;;;;7399096;19;20031;-79
2022/09/15 00:57:00;;;;;;;7.03;1.42;;;15.10;99.90;;;;;;7400339;19;20744;-78
2022/09/15 00:59:30;;;;;;;6.53;1.20;;;15.20;99.90;;;;;;7396076;19;20387;-79
2022/09/15 01:02:06;;;;;;;5.82;1.42;;;15.10;99.90;;;;;;7401547;19;20011;-78
2022/09/15 01:04:32;;;;;;;6.10;1.58;;;15.10;99.90;;;;;;7398729;19;20074;-78
2022/09/15 01:07:03;;;;;;;3.92;1.42;;;15.10;99.90;;;;;;7399167;19;20027;-79
2022/09/15 01:09:36;;;;;;;5.93;1.60;;;15.10;99.90;;;;;;7399416;19;20077;-78
2022/09/15 01:12:02;;;;;;;;;;;15.10;99.90;;;;;;7398317;19;20086;-78
2022/09/15 01:14:28;;;;;;;7.30;1.75;;;15.20;99.90;;;;;;7397824;19;19946;-79
2022/09/15 01:17:12;;;;;;;5.32;1.60;;;15.20;99.90;;;;;;7391336;19;20479;-79
2022/09/15 01:19:58;;;;;;;5.78;1.70;;;15.20;99.90;;;;;;7390378;19;20018;-79
2022/09/15 01:22:47;;;;;;;5.78;1.70;;;15.20;99.90;;;;;;7398245;19;20025;-79
2022/09/15 01:25:42;;;;;;;6.35;1.75;;;15.20;99.90;;;;;;7396439;19;20010;-79
2022/09/15 01:28:37;;;;;;;7.38;1.90;;;15.10;99.90;;;;;;7392569;19;20018;-79
2022/09/15 01:31:16;;;;;;;5.50;1.52;;;15.10;99.90;;;;;;7394934;19;20014;-79
2022/09/15 01:34:07;;;;;;;5.70;1.73;;;15.10;99.90;;;;;;7396374;19;20017;-79
2022/09/15 01:36:51;;;;;;;4.25;1.30;;;15.00;99.90;;;;;;7398344;19;20019;-78
2022/09/15 01:39:25;;;;;;;6.53;1.20;;;14.90;99.90;;;;;;7394708;19;20022;-78
2022/09/15 01:42:05;;;;;;;5.05;1.40;;;15.00;99.90;;;;;;7392173;19;20102;-78
2022/09/15 01:44:40;;;;;;;7.60;1.45;;;15.10;99.90;;;;;;7400540;19;20484;-78
2022/09/15 01:47:10;;;;;;;6.05;1.38;;;15.10;99.90;;;;;;7399105;19;20479;-78
2022/09/15 01:49:59;;;;;;;5.82;1.20;;;15.10;99.90;;;;;;7396504;19;20011;-78
2022/09/15 01:52:27;;;;;;;7.28;1.38;;;15.10;99.90;;;;;;7394637;19;20074;-78
2022/09/15 01:54:59;;;;;;;7.70;1.60;;;15.10;99.90;;;;;;7395991;19;20500;-77
2022/09/15 01:57:26;;;;;;;7.47;1.60;;;15.10;99.90;;;;;;7397533;19;20022;-78
2022/09/15 01:59:54;;;;;;;7.57;1.73;;;15.10;99.90;;;;;;7392892;19;20026;-78
2022/09/15 02:02:49;;;;;;;5.53;1.13;;;15.10;99.90;;;;;;7396038;19;20007;-78
2022/09/15 02:05:24;;;;;;;6.43;1.30;;;15.10;99.90;;;;;;7399460;19;20382;-78
2022/09/15 02:08:11;;;;;;;7.28;1.40;;;15.10;99.90;;;;;;7396952;19;20028;-78
2022/09/15 02:10:57;;;;;;;6.00;1.73;;;15.10;99.90;;;;;;7396676;19;20035;-78
2022/09/15 02:13:32;;;;;;;5.80;1.38;;;15.10;99.90;;;;;;7397523;19;20074;-78
2022/09/15 02:15:59;;;;;;;4.68;1.20;;;15.10;99.90;;;;;;7393715;19;20078;-78
2022/09/15 02:18:42;;;;;;;5.28;1.35;;;15.20;99.90;;;;;;7389699;19;20018;-78
2022/09/15 02:21:17;;;;;;;7.07;1.35;;;15.20;99.90;;;;;;7395139;19;20020;-78
2022/09/15 02:23:49;;;;;;;6.55;1.42;;;15.20;99.90;;;;;;7394591;19;20479;-78
2022/09/15 02:26:19;;;;;;;7.13;1.65;;;15.20;99.90;;;;;;7394608;19;20018;-78
2022/09/15 02:28:47;;;;;;;6.57;1.60;;;15.20;99.90;;;;;;7387515;19;20018;-78
2022/09/15 02:31:16;;;;;;;5.32;1.58;;;15.20;99.90;;;;;;7393495;19;20037;-78
2022/09/15 02:33:50;;;;;;;9.32;2.08;;;15.30;99.90;;;;;;7393077;19;20051;-78
2022/09/15 02:36:19;;;;;;;8.68;1.48;;;15.40;99.90;;;;;;7397664;19;20038;-78
2022/09/15 02:38:51;;;;;;;9.95;1.40;;;15.30;99.90;;;;;;7392065;19;20471;-78
2022/09/15 02:41:17;;;;;;;8.18;1.52;;;15.30;99.90;;;;;;7395389;19;20015;-78
2022/09/15 02:43:48;;;;;;;6.82;1.20;;;15.40;99.90;;;;;;7394911;19;20030;-77
2022/09/15 02:46:19;;;;;;;7.35;1.30;;;15.40;99.90;;;;;;7391871;19;20022;-78
2022/09/15 02:48:45;;;;;;;8.98;1.13;;;15.30;99.90;;;;;;7394174;19;20014;-78
2022/09/15 02:51:11;;;;;;;4.00;1.00;;;15.30;99.90;;;;;;7386851;19;20129;-78
2022/09/15 02:53:37;;;;;;;8.27;1.30;;;15.20;99.90;;;;;;7386596;19;21279;-78
2022/09/15 02:56:06;;;;;;;5.80;1.10;;;15.10;99.90;;;;;;7385186;19;20018;-78
2022/09/15 02:58:33;;;;;;;5.25;1.20;;;15.00;99.90;;;;;;7388030;19;20489;-79
2022/09/15 03:01:04;;;;;;;9.07;1.40;;;14.90;99.90;;;;;;7386525;19;20022;-78
2022/09/15 03:03:33;;;;;;;8.77;1.27;;;15.00;99.90;;;;;;7385399;19;20026;-78
2022/09/15 03:06:15;;;;;;;6.38;1.23;;;14.90;99.90;;;;;;7387659;19;20020;-78
2022/09/15 03:08:46;;;;;;;8.35;1.00;;;14.80;99.90;;;;;;7386652;19;20034;-78
2022/09/15 03:11:12;;;;;;;7.53;0.98;;;14.70;99.90;;;;;;7386393;19;20428;-79
2022/09/15 03:13:38;;;;;;;7.38;1.17;;;14.60;99.90;;;;;;7385830;19;20015;-79
2022/09/15 03:16:09;;;;;;;9.90;2.05;;;14.60;99.90;;;;;;7384603;19;20510;-79
2022/09/15 03:18:35;;;;;;;5.85;1.15;;;14.60;99.90;;;;;;7384498;19;20019;-79
2022/09/15 03:21:02;;;;;;;7.40;1.00;;;14.70;99.90;;;;;;7385124;19;20021;-79
2022/09/15 03:23:28;;;;;;;7.47;1.10;;;14.70;99.90;;;;;;7386095;19;20022;-79
2022/09/15 03:25:54;;;;;;;9.38;1.30;;;14.70;99.90;;;;;;7385160;19;20031;-79
2022/09/15 03:28:20;;;;;;;7.47;1.23;;;14.90;99.90;;;;;;7385839;19;20025;-79
2022/09/15 03:30:46;;;;;;;5.28;1.00;;;14.90;99.90;;;;;;7393278;19;20032;-78
2022/09/15 03:33:12;;;;;;;8.27;1.23;;;15.00;99.90;;;;;;7395812;19;20019;-79
2022/09/15 03:35:38;;;;;;;5.18;0.75;;;15.10;99.90;;;;;;7394406;19;20030;-79
2022/09/15 03:38:05;;;;;;;6.38;0.90;;;15.20;99.90;;;;;;7392537;19;20074;-79
2022/09/15 03:40:32;;;;;;;6.10;1.00;;;15.20;99.90;;;;;;7393166;19;20011;-79
2022/09/15 03:42:58;;;;;;;7.63;1.10;;;15.30;99.90;;;;;;7396110;19;20011;-79
2022/09/15 03:45:24;;;;;;;7.82;1.10;;;15.10;99.90;;;;;;7392548;19;20010;-79
2022/09/15 03:47:50;;;;;;;8.30;1.30;;;15.00;99.90;;;;;;7394276;19;20015;-80
2022/09/15 03:50:15;;;;;;;7.22;1.40;;;14.90;99.90;;;;;;7392615;19;20007;-79
2022/09/15 03:52:41;;;;;;;7.10;1.20;;;14.80;99.90;;;;;;7391591;19;20082;-79
2022/09/15 03:55:10;;;;;;;7.10;1.30;;;14.70;99.90;;;;;;7394231;19;20022;-80
2022/09/15 03:57:36;;;;;;;12.95;1.70;;;14.60;99.90;;;;;;7392311;19;20360;-80
2022/09/15 04:00:04;;;;;;;6.75;1.00;;;14.60;99.90;;;;;;7391198;19;20015;-80
2022/09/15 04:02:30;;;;;;;8.40;1.33;;;14.60;99.90;;;;;;7385147;19;20051;-79
2022/09/15 04:04:56;;;;;;;9.50;1.40;;;14.60;99.90;;;;;;7385776;19;20022;-79
2022/09/15 04:07:22;;;;;;;5.78;0.85;;;14.60;99.90;;;;;;7385324;19;20376;-80
2022/09/15 04:09:48;;;;;;;7.13;1.08;;;14.60;99.90;;;;;;7384563;19;20479;-79
2022/09/15 04:12:14;;;;;;;8.43;1.23;;;14.60;99.90;;;;;;7385647;19;20014;-79
2022/09/15 04:14:40;;;;;;;7.60;1.25;;;14.60;99.90;;;;;;7391568;19;20014;-79
2022/09/15 04:17:06;;;;;;;8.05;1.25;;;14.60;99.90;;;;;;7392888;19;20019;-78
2022/09/15 04:19:32;;;;;;;8.00;1.10;;;14.60;99.90;;;;;;7389359;19;20025;-78
2022/09/15 04:21:58;;;;;;;7.05;1.38;;;14.60;99.90;;;;;;7387190;19;20015;-78
2022/09/15 04:24:23;;;;;;;5.07;1.20;;;14.60;99.90;;;;;;7391765;19;20482;-78
2022/09/15 04:26:49;;;;;;;7.88;1.40;;;14.70;99.90;;;;;;7389266;19;20035;-77
2022/09/15 04:29:18;;;;;;;6.80;1.30;;;14.80;99.90;;;;;;7392129;19;20021;-79
2022/09/15 04:31:49;;;;;;;7.90;1.20;;;14.80;99.90;;;;;;7386060;19;20025;-83
2022/09/15 04:34:15;;;;;;;6.78;1.13;;;14.70;99.90;;;;;;7393301;19;20011;-83
2022/09/15 04:36:41;;;;;;;7.75;1.20;;;14.70;99.90;;;;;;7393994;19;20018;-82
2022/09/15 04:39:07;;;;;;;6.32;1.00;;;14.60;99.90;;;;;;7388926;19;20033;-81
2022/09/15 04:41:40;;;;;;;8.45;1.25;;;14.50;99.90;;;;;;7395049;19;20014;-82
2022/09/15 04:44:06;;;;;;;9.95;1.50;;;14.50;99.90;;;;;;7397916;19;20022;-81
2022/09/15 04:46:32;;;;;;;7.60;1.70;;;14.40;99.90;;;;;;7398716;19;20006;-81
2022/09/15 04:48:58;;;;;;;6.53;1.80;;;14.40;99.90;;;;;;7398460;19;20018;-81
2022/09/15 04:51:25;;;;;;;6.78;1.58;;;14.40;99.90;;;;;;7397203;19;20050;-79
2022/09/15 04:53:51;;;;;;;9.10;1.63;;;14.50;99.90;;;;;;7398788;19;20018;-81
2022/09/15 04:56:20;;;;;;;9.38;1.50;;;14.40;99.90;;;;;;7399727;19;20093;-81
2022/09/15 04:58:50;;;;;;;9.32;1.40;;;14.40;99.90;;;;;;7395209;19;20024;-79
2022/09/15 05:01:20;;;;;;;7.97;1.30;;;14.30;99.90;;;;;;7400321;19;20356;-78
2022/09/15 05:03:46;;;;;;;8.02;1.52;;;14.30;99.90;;;;;;7401237;19;20164;-78
2022/09/15 05:06:15;;;;;;;10.65;1.42;;;14.30;99.90;;;;;;7397089;19;20056;-79
2022/09/15 05:08:41;;;;;;;10.82;2.05;;;14.30;99.90;;;;;;7395846;19;20014;-80
2022/09/15 05:11:10;;;;;;;5.70;1.35;;;14.30;99.90;;;;;;7396129;19;20077;-80
2022/09/15 05:13:37;;;;;;;7.78;1.30;;;14.40;99.90;;;;;;7399730;19;20078;-79
2022/09/15 05:16:07;;;;;;;8.95;1.63;;;14.40;99.90;;;;;;7398623;19;20018;-80
2022/09/15 05:18:34;;;;;;;12.90;1.65;;;14.30;99.90;;;;;;7393300;19;20035;-78
2022/09/15 05:21:01;;;;;;;8.65;1.45;;;14.30;99.90;;;;;;7394364;19;20074;-79
2022/09/15 05:23:28;;;;;;;7.07;1.50;;;14.30;99.90;;;;;;7397289;19;20022;-80
2022/09/15 05:25:58;;;;;;;7.38;1.30;;;14.30;99.90;;;;;;7398953;19;20374;-80
2022/09/15 05:28:24;;;;;;;5.32;1.38;;;14.40;99.90;;;;;;7397252;19;20371;-80
2022/09/15 05:30:52;;;;;;;8.27;1.45;;;14.50;99.90;;;;;;7398885;19;20018;-79
2022/09/15 05:33:22;;;;;;;7.20;1.13;;;14.50;99.90;;;;;;7396699;19;20010;-79
2022/09/15 05:35:56;;;;;;;8.35;1.23;;;14.40;99.90;;;;;;7395970;19;20015;-79
2022/09/15 05:38:23;;;;;;;9.82;1.30;;;14.50;99.90;;;;;;7397774;19;20479;-80
2022/09/15 05:40:49;;;;;;;7.60;1.23;;;14.40;99.90;;;;;;7397135;19;20035;-89
2022/09/15 05:43:16;;;;;;;5.80;1.13;;;14.30;99.90;;;;;;7400008;19;20498;-94
2022/09/15 05:45:42;;;;;;;17.80;3.13;;;14.30;99.90;;;;;;7398899;19;20040;-80
2022/09/15 05:48:09;;;;;;;10.93;1.65;;;14.30;99.90;;;;;;7395710;19;20015;-84
2022/09/15 05:50:35;;;;;;;8.88;1.30;;;14.20;99.90;;;;;;7395059;19;20368;-80
2022/09/15 05:53:02;;;;;;;9.82;1.40;;;14.10;99.90;;;;;;7395131;19;20017;-80
2022/09/15 05:55:28;;;;;;;9.32;1.40;;;14.10;99.90;;;;;;7400343;19;20015;-80
2022/09/15 05:57:54;;;;;;;7.95;1.45;;;14.20;99.90;;;;;;7396525;19;20130;-80
2022/09/15 06:00:20;;;;;;;8.63;1.60;;;14.20;99.90;;;;;;7396513;19;20124;-80
2022/09/15 06:02:46;;;;;;;7.47;1.73;;;14.20;99.90;;;;;;7391832;19;20362;-80
2022/09/15 06:05:12;;;;;;;5.70;1.13;;;14.20;99.90;;;;;;7397957;19;20014;-80
2022/09/15 06:07:38;;;;;;;9.85;1.42;;;14.20;99.90;;;;;;7394657;19;20032;-81
2022/09/15 06:10:04;;;;;;;8.88;1.40;;;14.20;99.90;;;;;;7397412;19;20012;-81
2022/09/15 06:12:31;;;;;;;6.65;1.33;;;14.20;99.90;;;;;;7398198;19;20011;-81
2022/09/15 06:14:56;;;;;;;7.60;1.63;;;14.10;99.90;;;;;;7393628;19;20034;-81
2022/09/15 06:17:22;;;;;;;7.93;1.33;;;14.10;99.90;;;;;;7394129;19;20078;-80
2022/09/15 06:19:48;;;;;;;10.27;1.50;;;14.20;99.90;;;;;;7394304;19;20479;-80
2022/09/15 06:22:14;;;;;;;7.85;1.67;;;14.20;99.90;;;;;;7396019;19;20037;-80
2022/09/15 06:24:40;;;;;;;8.95;1.50;;;14.20;99.90;;;;;;7397188;19;20010;-80
2022/09/15 06:27:06;;;;;;;6.68;1.23;;;14.20;99.90;;;;;;7394162;19;20014;-80
2022/09/15 06:29:32;;;;;;;8.52;1.50;;;14.30;99.90;;;;;;7393578;19;20018;-80
2022/09/15 06:32:01;;;;;;;8.95;1.65;;;14.30;99.90;;;;;;7394357;19;20010;-81
2022/09/15 06:34:28;;;;;;;10.10;1.90;;;14.30;99.90;;;;;;7399543;19;20087;-82
2022/09/15 06:36:56;;;;;;;13.18;2.10;;;14.40;99.90;;;;;;7396851;19;20026;-82
2022/09/15 06:39:21;;;;;;;6.45;1.17;;;14.60;99.90;;;;;;7394626;19;20014;-82
2022/09/15 06:41:48;;;;;;;9.43;1.38;;;14.70;99.90;;;;;;7394574;19;20097;-81
2022/09/15 06:44:14;;;;;;;10.63;1.50;;;14.80;99.90;;;;;;7394394;19;20121;-82
2022/09/15 06:46:40;;;;;;;7.22;1.27;;;15.00;99.90;;;;;;7394224;19;20527;-81
2022/09/15 06:49:06;;;;;;;5.25;1.10;;;15.20;99.90;;;;;;7391607;19;20020;-82
2022/09/15 06:51:34;;;;;;;11.05;1.52;;;15.40;99.90;;;;;;7395037;19;20022;-82
2022/09/15 06:54:03;;;;;;;10.35;1.73;;;15.60;99.90;;;;;;7397204;19;20018;-82
2022/09/15 06:56:29;;;;;;;7.88;1.42;;;15.70;99.90;;;;;;7392449;19;20014;-82
2022/09/15 06:58:55;;;;;;;8.25;1.60;;;15.70;99.90;;;;;;7393091;19;20045;-82
2022/09/15 07:01:31;;;;;;;6.15;1.40;;;15.80;99.90;;;;;;7396258;19;20048;-82
2022/09/15 07:03:59;;;;;;;5.85;1.17;;;16.20;99.90;;;;;;7392938;19;20039;-82
2022/09/15 07:06:30;;;;;;;7.25;1.15;;;16.40;99.90;;;;;;7393060;19;20025;-82
2022/09/15 07:08:57;;;;;;;6.80;1.70;;;16.90;99.90;;;;;;7391947;19;20018;-82
2022/09/15 07:11:23;;;;;;;5.13;1.13;;;17.10;99.90;;;;;;7398081;19;20017;-82
2022/09/15 07:13:51;;;;;;;4.78;1.20;;;17.60;99.90;;;;;;7393324;19;20363;-82
2022/09/15 07:16:18;;;;;;;4.95;1.17;;;18.30;99.90;;;;;;7393658;19;20373;-82
2022/09/15 07:18:45;;;;;;;6.07;1.25;;;18.40;99.90;;;;;;7391670;19;20011;-82
2022/09/15 07:21:13;;;;;;;6.82;1.25;;;18.40;99.90;;;;;;7393796;19;20015;-82
2022/09/15 07:23:39;;;;;;;6.65;1.40;;;18.30;99.90;;;;;;7393266;19;20011;-82
2022/09/15 07:26:15;;;;;;;5.35;1.25;;;18.20;99.90;;;;;;7396477;19;20561;-81
2022/09/15 07:28:44;;;;;;;4.50;1.10;;;18.00;99.90;;;;;;7393118;19;20015;-81
2022/09/15 07:31:14;;;;;;;4.53;1.17;;;17.80;99.90;;;;;;7393211;19;20014;-82
2022/09/15 07:33:40;;;;;;;5.32;1.13;;;17.90;99.90;;;;;;7391517;19;20047;-82
2022/09/15 07:36:07;;;;;;;6.10;1.35;;;18.10;99.90;;;;;;7393404;19;20022;-81
2022/09/15 07:38:37;;;;;;;4.18;1.10;;;18.30;99.90;;;;;;7390615;19;20062;-82
2022/09/15 07:41:09;;;;;;;7.10;1.20;;;18.40;99.90;;;;;;7396106;19;20015;-82
2022/09/15 07:43:35;;;;;;;11.07;1.38;;;18.30;99.90;;;;;;7392853;19;20017;-81
2022/09/15 07:46:02;;;;;;;5.10;1.00;;;17.80;99.90;;;;;;7392680;19;20369;-81
2022/09/15 07:48:28;;;;;;;6.70;1.10;;;17.60;99.90;;;;;;7390586;19;20022;-82
2022/09/15 07:50:55;;;;;;;8.55;1.35;;;17.20;99.90;;;;;;7394192;19;20476;-81
2022/09/15 07:53:21;;;;;;;6.90;1.00;;;17.00;99.90;;;;;;7390547;19;20014;-82
2022/09/15 07:55:56;;;;;;;10.05;1.52;;;16.90;99.90;;;;;;7392728;19;20021;-81
2022/09/15 07:58:23;;;;;;;5.25;0.98;;;17.00;99.90;;;;;;7391689;19;20021;-81
2022/09/15 08:00:49;;;;;;;6.05;1.25;;;17.00;99.90;;;;;;7390930;19;20115;-82
2022/09/15 08:03:15;;;;;;;8.70;1.45;;;17.20;99.90;;;;;;7392072;19;20011;-81
2022/09/15 08:05:41;;;;;;;6.35;1.15;;;17.10;99.90;;;;;;7392184;19;20547;-81
2022/09/15 08:08:07;;;;;;;7.90;1.20;;;16.90;99.90;;;;;;7390248;19;20070;-82
2022/09/15 08:10:33;;;;;;;7.63;1.00;;;16.80;99.90;;;;;;7395987;19;20461;-82
2022/09/15 08:12:59;;;;;;;7.10;0.98;;;16.80;99.90;;;;;;7391017;19;20011;-82
2022/09/15 08:15:26;;;;;;;8.13;1.33;;;16.90;99.90;;;;;;7394984;19;20018;-82
2022/09/15 08:17:52;;;;;;;11.10;1.52;;;16.90;99.90;;;;;;7393678;19;20403;-82
2022/09/15 08:20:18;;;;;;;6.63;1.33;;;16.90;99.90;;;;;;7395929;19;20011;-82
2022/09/15 08:22:45;;;;;;;6.38;1.13;;;16.90;99.90;;;;;;7398008;19;20011;-82
2022/09/15 08:25:11;;;;;;;3.97;0.90;;;16.90;99.90;;;;;;7397859;19;20018;-82
2022/09/15 08:27:38;;;;;;;6.55;1.45;;;17.10;99.90;;;;;;7395985;19;20011;-82
2022/09/15 08:30:05;;;;;;;7.45;1.30;;;17.10;99.90;;;;;;7403302;19;20010;-81
2022/09/15 08:32:32;;;;;;;7.32;1.30;;;17.20;99.90;;;;;;7398732;19;20006;-83
2022/09/15 08:34:58;;;;;;;6.07;0.80;;;17.20;99.90;;;;;;7399221;19;20011;-80
2022/09/15 08:37:24;;;;;;;4.22;0.95;;;17.30;99.90;;;;;;7398818;19;20044;-80
2022/09/15 08:39:50;;;;;;;6.00;1.00;;;17.60;99.90;;;;;;7396685;19;20078;-81
2022/09/15 08:42:25;;;;;;;5.93;1.02;;;18.00;99.90;;;;;;7395730;19;20406;-81
2022/09/15 08:45:06;;;;;;;4.53;1.02;;;18.20;99.90;;;;;;7402053;19;20026;-81
2022/09/15 08:47:37;;;;;;;5.10;1.25;;;18.40;99.90;;;;;;7395825;19;20479;-81
2022/09/15 08:50:26;;;;;;;8.27;1.60;;;18.50;99.90;;;;;;7399544;19;20018;-81
2022/09/15 08:53:11;;;;;;;6.53;1.23;;;18.00;99.90;;;;;;7398296;19;20011;-81
2022/09/15 08:55:59;;;;;;;8.07;1.23;;;17.50;99.90;;;;;;7400980;19;20021;-81
2022/09/15 08:58:28;;;;;;;8.27;1.60;;;16.90;99.90;;;;;;7397345;19;20031;-80
2022/09/15 09:01:20;;;;;;;8.82;1.60;;;16.50;99.90;;;;;;7397874;19;20017;-82
2022/09/15 09:04:02;;;;;;;7.93;1.77;;;16.00;99.90;;;;;;7399977;19;20014;-81
2022/09/15 09:06:50;;;;;;;8.18;1.80;;;15.90;99.90;;;;;;7397969;19;20018;-82
2022/09/15 09:09:24;;;;;;;6.95;1.67;;;15.60;99.90;;;;;;7397484;19;20690;-81
2022/09/15 09:11:59;;;;;;;9.48;2.00;;;15.40;99.90;;;;;;7396912;19;20014;-82
2022/09/15 09:14:54;;;;;;;12.30;1.70;;;15.40;99.90;;;;;;7397824;19;20040;-82
2022/09/15 09:17:52;;;;;;;8.43;1.77;;;15.20;99.90;;;;;;7394897;19;20018;-82
2022/09/15 09:21:02;;;;;;;8.23;1.80;;;15.20;99.90;;;;;;7394526;19;20015;-82
2022/09/15 09:23:31;;;;;;;7.90;1.60;;;15.40;99.90;;;;;;7397610;19;20022;-82
2022/09/15 09:25:59;;;;;;;9.23;1.40;;;15.40;99.90;;;;;;7395136;19;20026;-81
2022/09/15 09:28:38;;;;;;;6.45;1.20;;;15.60;99.90;;;;;;7398536;19;20353;-81
2022/09/15 09:31:06;;;;;;;5.03;1.23;;;15.60;99.90;;;;;;7399904;19;20022;-82
2022/09/15 09:33:35;;;;;;;7.90;1.52;;;15.60;99.90;;;;;;7396616;19;20007;-81
2022/09/15 09:36:02;;;;;;;6.25;1.05;;;15.70;99.90;;;;;;7398358;19;20498;-81
2022/09/15 09:38:35;;;;;;;7.72;1.55;;;15.80;99.90;;;;;;7395897;19;20047;-81
2022/09/15 09:41:05;;;;;;;4.93;1.10;;;16.10;99.90;;;;;;7396799;19;20012;-82
2022/09/15 09:43:31;;;;;;;4.93;0.85;;;16.50;99.90;;;;;;7395222;19;20035;-81
2022/09/15 09:45:58;;;;;;;4.70;1.00;;;16.90;99.90;;;;;;7394494;19;20007;-81
2022/09/15 09:48:26;;;;;;;6.63;1.20;;;17.20;99.90;;;;;;7395049;19;20033;-80
2022/09/15 09:50:53;;;;;;;5.03;1.20;;;17.50;99.90;;;;;;7395728;19;20018;-84
2022/09/15 09:53:28;;;;;;;10.77;1.27;;;17.50;99.90;;;;;;7397029;19;20328;-82
2022/09/15 09:56:15;;;;;;;7.53;1.38;;;17.70;99.90;;;;;;7393472;19;20013;-81
2022/09/15 09:58:42;;;;;;;5.75;1.00;;;17.90;99.90;;;;;;7394948;19;20011;-82
2022/09/15 10:01:13;;;;;;;5.32;0.77;;;18.00;99.90;;;;;;7394237;19;20022;-80
2022/09/15 10:03:40;;;;;;;5.60;1.25;;;18.30;99.90;;;;;;7382505;19;20025;-84
2022/09/15 10:06:11;;;;;;;6.03;0.90;;;18.50;99.90;;;;;;7391562;19;20019;-82
2022/09/15 10:08:50;;;;;;;3.88;1.13;;;18.70;99.90;;;;;;7394670;19;20583;-83
2022/09/15 10:11:16;;;;;;;4.38;1.17;;;19.10;99.90;;;;;;7396478;19;20022;-83
2022/09/15 10:13:52;;;;;;;3.03;1.13;;;19.30;99.90;;;;;;7397947;19;20031;-83
2022/09/15 10:16:19;;;;;;;4.30;0.93;;;19.50;99.90;;;;;;7395040;19;20014;-82
2022/09/15 10:18:48;;;;;;;4.43;0.90;;;19.70;99.90;;;;;;7386573;19;20097;-83
2022/09/15 10:21:21;;;;;;;6.65;0.90;;;19.70;99.90;;;;;;7395709;19;20025;-84
2022/09/15 10:23:47;;;;;;;5.60;1.02;;;19.60;99.90;;;;;;7393448;19;20011;-84
2022/09/15 10:26:33;;;;;;;4.25;0.98;;;19.80;99.90;;;;;;7396533;19;20035;-84
2022/09/15 10:29:16;;;;;;;4.60;1.23;;;19.70;99.90;;;;;;7396655;19;20078;-83
2022/09/15 10:31:44;;;;;;;6.13;1.30;;;19.60;99.90;;;;;;7395259;19;20022;-83
2022/09/15 10:34:47;;;;;;;3.70;0.85;;;19.70;99.90;;;;;;7392732;19;20010;-84
2022/09/15 10:37:26;;;;;;;3.72;0.70;;;19.80;99.90;;;;;;7391958;19;20018;-83
2022/09/15 10:39:58;;;;;;;4.65;0.88;;;19.90;99.90;;;;;;7389098;19;20023;-84
2022/09/15 10:42:47;;;;;;;5.72;1.55;;;20.10;99.90;;;;;;7397337;19;20478;-83
2022/09/15 10:45:21;;;;;;;3.50;0.95;;;20.10;99.90;;;;;;7395628;19;20029;-83
2022/09/15 10:47:58;;;;;;;3.72;1.00;;;20.40;99.90;;;;;;7393929;19;20381;-83
2022/09/15 10:50:43;;;;;;;3.78;1.05;;;20.50;99.90;;;;;;7379240;19;20048;-83
2022/09/15 10:53:30;;;;;;;4.03;0.85;;;20.40;99.90;;;;;;7393455;19;20030;-82
2022/09/15 10:56:18;;;;;;;7.45;0.93;;;20.00;99.90;;;;;;7392170;19;20107;-84
2022/09/15 10:59:05;;;;;;;5.95;1.67;;;19.80;99.90;;;;;;7394607;19;20085;-84
2022/09/15 11:01:44;;;;;;;3.45;0.90;;;19.60;99.90;;;;;;7395923;19;21655;-83
2022/09/15 11:04:28;;;;;;;2.65;0.60;;;19.50;99.90;;;;;;7394223;19;20018;-84
2022/09/15 11:07:17;;;;;;;3.53;0.88;;;19.50;99.90;;;;;;7392388;19;20090;-84
2022/09/15 11:10:26;;;;;;;3.25;0.90;;;19.00;99.90;;;;;;7393459;19;20417;-84
2022/09/15 11:13:01;;;;;;;4.15;1.20;;;19.00;99.90;;;;;;7392903;19;20021;-87
2022/09/15 11:15:49;;;;;;;3.92;0.77;;;18.60;99.90;;;;;;7394330;19;20014;-87
2022/09/15 11:19:02;;;;;;;5.78;1.08;;;18.70;99.90;;;;;;7392821;19;20018;-88
2022/09/15 11:21:41;;;;;;;5.78;1.60;;;18.50;99.90;;;;;;7388691;19;20375;-83
2022/09/15 11:24:27;;;;;;;2.80;0.93;;;18.10;99.90;;;;;;7390156;19;20673;-83
2022/09/15 11:27:22;;;;;;;5.35;1.27;;;18.00;99.90;;;;;;7393863;19;20074;-83
2022/09/15 11:30:06;;;;;;;4.13;1.20;;;18.10;99.90;;;;;;7385077;19;20033;-83
2022/09/15 11:32:53;;;;;;;11.93;1.63;;;17.90;99.90;;;;;;7385601;19;20026;-82
2022/09/15 11:35:35;;;;;;;3.42;0.90;;;17.90;99.90;;;;;;7390888;19;21269;-82
2022/09/15 11:38:10;;;;;;;5.05;1.20;;;17.60;99.90;;;;;;7392011;19;20017;-82
2022/09/15 11:40:42;;;;;;;5.30;1.00;;;17.40;99.90;;;;;;7393532;19;20038;-82
2022/09/15 11:43:56;;;;;;;5.60;1.10;;;17.10;99.90;;;;;;7393531;19;20035;-82
2022/09/15 11:46:34;;;;;;;4.78;1.40;;;16.90;99.90;;;;;;7391163;19;20015;-82
2022/09/15 11:49:10;;;;;;;5.65;0.93;;;17.10;99.90;;;;;;7391398;19;20023;-82
2022/09/15 11:51:43;;;;;;;3.30;0.70;;;17.10;99.90;;;;;;7396104;19;20018;-82
2022/09/15 11:54:21;;;;;;;5.93;1.02;;;17.40;99.90;;;;;;7398464;19;20022;-82
2022/09/15 11:56:48;;;;;;;4.38;1.25;;;17.70;99.90;;;;;;7395518;19;20022;-82
2022/09/15 11:59:31;;;;;;;3.30;1.02;;;17.80;99.90;;;;;;7391192;19;20369;-82
2022/09/15 12:02:31;;;;;;;3.97;1.02;;;17.60;99.90;;;;;;7400197;19;20022;-82
2022/09/15 12:05:34;;;;;;;4.28;0.93;;;17.50;99.90;;;;;;7392915;19;20752;-82
2022/09/15 12:08:09;;;;;;;4.47;0.80;;;17.00;99.90;;;;;;7395662;19;20048;-82
2022/09/15 12:10:51;;;;;;;4.82;0.90;;;16.90;99.90;;;;;;7401516;19;20018;-82
2022/09/15 12:13:23;;;;;;;4.05;1.20;;;16.90;99.90;;;;;;7397668;19;20026;-82
2022/09/15 12:15:51;;;;;;;5.22;1.17;;;17.00;99.90;;;;;;7397948;19;20025;-83
2022/09/15 12:18:32;;;;;;;4.82;0.95;;;17.10;99.90;;;;;;7388156;19;20019;-82
2022/09/15 12:21:22;;;;;;;4.65;1.08;;;17.10;99.90;;;;;;7392830;19;20073;-82
2022/09/15 12:24:04;;;;;;;4.82;1.00;;;17.40;99.90;;;;;;7397126;19;20023;-82
2022/09/15 12:26:32;;;;;;;5.78;1.05;;;17.60;99.90;;;;;;7398690;19;20018;-81
2022/09/15 12:29:03;;;;;;;2.75;0.73;;;17.70;99.90;;;;;;7392508;19;20060;-82
2022/09/15 12:31:37;;;;;;;3.15;0.70;;;18.00;99.90;;;;;;7397134;19;20479;-82
2022/09/15 12:34:03;;;;;;;5.20;1.10;;;18.00;99.90;;;;;;7399133;19;20046;-82
2022/09/15 12:36:38;;;;;;;4.88;1.02;;;17.90;99.90;;;;;;7400567;19;20018;-81
2022/09/15 12:39:18;;;;;;;5.13;1.25;;;17.40;99.90;;;;;;7400994;19;20026;-81
2022/09/15 12:41:49;;;;;;;4.25;1.23;;;17.00;99.90;;;;;;7398857;19;20015;-81
2022/09/15 12:44:29;;;;;;;4.28;0.95;;;16.60;99.90;;;;;;7390700;19;20082;-81
2022/09/15 12:46:57;;;;;;;6.30;1.75;;;16.70;99.90;;;;;;7392889;19;20014;-81
2022/09/15 12:49:33;;;;;;;5.68;1.10;;;16.70;99.90;;;;;;7397333;19;20015;-81
2022/09/15 12:52:02;;;;;;;3.95;1.17;;;16.80;99.90;;;;;;7392951;19;20025;-81
2022/09/15 12:54:31;;;;;;;5.03;1.10;;;16.60;99.90;;;;;;7398317;19;20022;-81
2022/09/15 12:56:59;;;;;;;4.25;1.45;;;16.40;99.90;;;;;;7385857;19;20072;-80
2022/09/15 12:59:27;;;;;;;6.05;1.13;;;16.50;99.90;;;;;;7397270;19;20382;-81
2022/09/15 13:01:54;;;;;;;4.15;0.95;;;16.40;99.90;;;;;;7400930;19;20063;-81
2022/09/15 13:04:46;;;;;;;6.00;1.25;;;16.40;99.90;;;;;;7383640;19;20021;-80
2022/09/15 13:07:15;;;;;;;4.88;1.08;;;16.50;99.90;;;;;;7397032;19;20010;-81
2022/09/15 13:09:55;;;;;;;5.05;1.08;;;16.50;99.90;;;;;;7395943;19;20014;-81